• Join FlightAware (Why Join?)
  • Login
  • US Flag 
08:10PM EDT


 

Airport Tracker/Info


-or-


 

Live Flight TrackerFlight Track Log ✈ UAL5847 ✈ 05-May-2013 ✈ KIAD - KBUF

Flight Track Log - Related Links

Times and Time Zones

All times are in EDT time to prevent confusion due to time zone crossing. See the UAL5847 flight status page for this flight to view local times or setup timezone preferences in your user account.

Time Position Orientation Groundspeed Altitude Reporting Facility
EDT Latitude Longitude Course Direction KTS MPH feet Rate Location/Type
05:23PM 38.9167 -77.4667 North 180 207 2,100  Level Potomac TRACON
05:24PM 38.9000 -77.5333 252° West 258 297 3,600 1,860 Climbing Potomac TRACON
05:25PM 38.9333 -77.6000 303° West 284 327 5,900 1,680 Climbing Potomac TRACON
05:26PM 39.3227 -77.4500 North  Level FlightAware Approximate
05:27PM 39.4201 -77.4500 North  Level FlightAware Approximate
05:27PM 39.0653 -77.6153 355° North 299 344 8,200  Level Washington Center
05:28PM 39.5174 -77.4500 North  Level FlightAware Approximate
05:28PM 39.1425 -77.6014 North 289 333 10,500  Level Washington Center
05:29PM 39.6148 -77.4500 North  Level FlightAware Approximate
05:29PM 39.2286 -77.5744 14° North 289 333 11,500  Level Washington Center
05:31PM 39.3757 -77.6178 North  Level Estimated
05:32PM 39.5133 -77.4906 North 341 392 16,200  Level Washington Center
05:33PM 39.6117 -77.4636 12° North 353 406 17,700 1,200 Climbing Washington Center
05:34PM 39.7011 -77.4522 North 354 407 18,800 1,560 Climbing New York Center
05:35PM 39.8117 -77.4519 360° North 370 426 21,000 1,080 Climbing New York Center
05:36PM 39.9139 -77.4508 360° North 370 426 21,000  Level New York Center
05:37PM 40.0225 -77.4478 North 370 426 21,000 420 Level New York Center
05:38PM 40.0399 -77.8159 North  Level Estimated
05:38PM 40.1414 -77.4456 North 375 432 21,900  Level New York Center
05:39PM 40.2458 -77.4447 360° North 380 437 23,100 1,200 Climbing New York Center
05:40PM 40.3542 -77.4442 360° North 386 444 24,400 1,320 Climbing New York Center
05:41PM 40.4608 -77.4408 North 386 444 25,800 780 Climbing New York Center
05:42PM 40.5672 -77.4403 360° North 386 444 26,000 60 Climbing New York Center
05:43PM 40.6733 -77.4397 360° North 386 444 26,000  Level New York Center
05:44PM 40.7675 -77.4350 North 386 444 26,000  Level New York Center
05:49PM 41.2467 -77.6364 342° North 386 444 26,000  Level Cleveland Center
05:50PM 41.3461 -77.6956 336° Northwest 386 444 26,000  Level Cleveland Center
05:51PM 41.4456 -77.7519 337° Northwest 386 444 26,000  Level Cleveland Center
05:52PM 41.5450 -77.8114 336° Northwest 386 444 26,000 -780 Level Cleveland Center
05:54PM 41.7183 -77.9153 336° Northwest 360 414 23,800 -1,200 Descending Cleveland Center
05:55PM 41.8072 -77.9672 336° Northwest 348 400 22,500 -1,320 Descending Cleveland Center
05:56PM 41.8958 -78.0194 336° Northwest 348 400 21,200 -1,380 Descending Cleveland Center
05:58PM 42.0797 -78.1297 336° Northwest 355 409 18,500 -1,320 Descending Cleveland Center
05:59PM 42.1706 -78.1822 337° Northwest 350 403 17,300 -1,440 Descending Cleveland Center
06:00PM 42.3167 -78.2667 337° Northwest 332 382 14,800 -1,620 Descending Buffalo TRACON
06:02PM 42.4075 -78.3589 323° Northwest 326 375 12,600 -1,680 Descending Cleveland Center
06:03PM 42.4756 -78.4239 325° Northwest 312 359 10,800 -1,920 Descending Cleveland Center
06:04PM 42.5433 -78.4894 325° Northwest 301 346 8,800 -1,860 Descending Cleveland Center
06:05PM 42.6111 -78.5547 325° Northwest 295 339 7,100 -1,980 Descending Cleveland Center
06:06PM 42.6769 -78.6233 323° Northwest 283 326 4,900 -1,560 Descending Cleveland Center
06:07PM 42.7364 -78.6836 323° Northwest 272 313 4,000 -660 Descending Cleveland Center
06:08PM 42.7936 -78.7414 323° Northwest 266 306 3,600 -900 Descending Cleveland Center
06:09PM 42.8422 -78.7881 325° Northwest 254 292 2,300 -900 Descending Cleveland Center
06:10PM 42.9000 -78.7833 North 145 167 1,600 -660 Descending Buffalo TRACON
06:11PM 42.9333 -78.7500 36° Northeast 114 131 800 -780 Descending Buffalo TRACON